Time;durP1;ratioP1;P1;durP2;ratioP2;P2;SDS_P1;SDS_P2;PMS_P1;PMS_P2;Temp;Humidity;BMP_temperature;BMP_pressure;BME280_temperature;BME280_humidity;BME280_pressure;Samples;Min_cycle;Max_cycle;Signal;HPM_P1;HPM_P2
2022/04/10 00:07:13;;;;;;;12.9;18.2;;;;;;;1.6;80.4;98160;;;;
2022/04/10 00:17:13;;;;;;;12.9;18.2;;;;;;;1.5;80.1;98160;;;;
2022/04/10 00:28:13;;;;;;;12.9;18.2;;;;;;;1.3;80;98180;;;;
2022/04/10 00:39:13;;;;;;;10.3;13.5;;;;;;;1.1;80.1;98190;;;;
2022/04/10 00:49:13;;;;;;;10.3;13.5;;;;;;;1.1;81;98210;;;;
2022/04/10 01:00:14;;;;;;;10.3;13.5;;;;;;;1.1;81.1;98200;;;;
2022/04/10 01:10:13;;;;;;;7.9;11.5;;;;;;;1;80.7;98200;;;;
2022/04/10 01:20:13;;;;;;;7.9;11.5;;;;;;;1;80.7;98200;;;;
2022/04/10 01:31:13;;;;;;;7.9;11.5;;;;;;;1;80.6;98200;;;;
2022/04/10 01:42:13;;;;;;;8.1;13.2;;;;;;;1;81.1;98220;;;;
2022/04/10 01:52:13;;;;;;;8.1;13.2;;;;;;;1.1;81.1;98220;;;;
2022/04/10 02:03:13;;;;;;;7.6;11.1;;;;;;;1.3;81;98220;;;;
2022/04/10 02:13:13;;;;;;;7.6;11.1;;;;;;;1.4;80.9;98230;;;;
2022/04/10 02:24:13;;;;;;;7.6;11.1;;;;;;;1.5;80.7;98250;;;;
2022/04/10 02:34:13;;;;;;;8.8;11.7;;;;;;;1.5;80.6;98250;;;;
2022/04/10 02:45:13;;;;;;;8.8;11.7;;;;;;;1.4;81;98260;;;;
2022/04/10 02:56:13;;;;;;;8.8;11.7;;;;;;;1.4;80.9;98280;;;;
2022/04/10 03:06:13;;;;;;;9.5;11.9;;;;;;;1.4;81.1;98290;;;;
2022/04/10 03:17:13;;;;;;;9.5;11.9;;;;;;;1.3;81.1;98310;;;;
2022/04/10 03:28:13;;;;;;;9.5;11.9;;;;;;;1.2;81.4;98320;;;;
2022/04/10 03:39:13;;;;;;;8.4;12.3;;;;;;;1.1;81.7;98330;;;;
2022/04/10 03:49:13;;;;;;;8.4;12.3;;;;;;;1;81.8;98340;;;;
2022/04/10 03:59:13;;;;;;;8.4;12.3;;;;;;;0.9;81.8;98350;;;;
2022/04/10 04:10:13;;;;;;;10.1;13.8;;;;;;;0.9;82.2;98370;;;;
2022/04/10 04:20:13;;;;;;;10.1;13.8;;;;;;;1;82.3;98380;;;;
2022/04/10 04:30:13;;;;;;;10.1;13.8;;;;;;;1.2;82.4;98390;;;;
2022/04/10 04:41:13;;;;;;;9.3;14.2;;;;;;;1.4;82.2;98400;;;;
2022/04/10 04:52:13;;;;;;;9.3;14.2;;;;;;;1.7;81.9;98420;;;;
2022/04/10 05:03:13;;;;;;;9.8;14.1;;;;;;;1.9;81.2;98430;;;;
2022/04/10 05:13:13;;;;;;;9.8;14.1;;;;;;;2.1;80.4;98440;;;;
2022/04/10 05:24:13;;;;;;;9.8;14.1;;;;;;;2.7;80.1;98450;;;;
2022/04/10 05:35:13;;;;;;;11.1;15.4;;;;;;;3.4;77.7;98450;;;;
2022/04/10 05:46:13;;;;;;;11.1;15.4;;;;;;;3.8;75.6;98470;;;;
2022/04/10 05:56:13;;;;;;;11.1;15.4;;;;;;;4;74.4;98470;;;;
2022/04/10 06:06:13;;;;;;;12.2;14.7;;;;;;;4;74.4;98480;;;;
2022/04/10 06:16:13;;;;;;;12.2;14.7;;;;;;;4.1;74.4;98490;;;;
2022/04/10 06:27:13;;;;;;;12.2;14.7;;;;;;;4.2;74.1;98490;;;;
2022/04/10 06:37:14;;;;;;;14.2;17.2;;;;;;;4.2;73.2;98500;;;;
2022/04/10 06:47:13;;;;;;;14.2;17.2;;;;;;;4.4;72.9;98510;;;;
2022/04/10 06:57:13;;;;;;;14.2;17.2;;;;;;;4.6;72.7;98520;;;;
2022/04/10 07:08:14;;;;;;;16.4;20.4;;;;;;;4.7;71.4;98520;;;;
2022/04/10 07:18:13;;;;;;;16.4;20.4;;;;;;;5;70.5;98530;;;;
2022/04/10 07:29:13;;;;;;;16.4;20.4;;;;;;;5.2;69.8;98540;;;;
2022/04/10 07:40:13;;;;;;;15.4;17.4;;;;;;;5.2;68.8;98540;;;;
2022/04/10 07:51:13;;;;;;;15.4;17.4;;;;;;;5;67.6;98560;;;;
2022/04/10 08:01:13;;;;;;;10.4;14.8;;;;;;;4.8;66.9;98560;;;;
2022/04/10 08:12:13;;;;;;;10.4;14.8;;;;;;;4.7;68.2;98560;;;;
2022/04/10 08:22:13;;;;;;;10.4;14.8;;;;;;;4.7;67.6;98570;;;;
2022/04/10 08:32:13;;;;;;;9.8;14.7;;;;;;;4.7;68;98580;;;;
2022/04/10 08:43:13;;;;;;;9.8;14.7;;;;;;;5.1;67.8;98590;;;;
2022/04/10 08:53:13;;;;;;;9.8;14.7;;;;;;;5.5;66.5;98600;;;;
2022/04/10 09:03:13;;;;;;;11.3;16.2;;;;;;;5.7;66.2;98600;;;;
2022/04/10 09:14:13;;;;;;;11.3;16.2;;;;;;;5.6;64.9;98600;;;;
2022/04/10 09:24:14;;;;;;;11.3;16.2;;;;;;;6;65;98600;;;;
2022/04/10 09:34:13;;;;;;;9.2;12.4;;;;;;;5.9;63.8;98600;;;;
2022/04/10 09:44:13;;;;;;;9.2;12.4;;;;;;;6.5;63.5;98600;;;;
2022/04/10 09:54:13;;;;;;;9.2;12.4;;;;;;;6.6;63;98590;;;;
2022/04/10 10:05:13;;;;;;;8;11.3;;;;;;;7.6;58.9;98580;;;;
2022/04/10 10:16:13;;;;;;;8;11.3;;;;;;;7.7;58.2;98570;;;;
2022/04/10 10:26:13;;;;;;;8;11.3;;;;;;;6.8;61.7;98590;;;;
2022/04/10 10:36:13;;;;;;;7.7;11.6;;;;;;;5.6;67.8;98600;;;;
2022/04/10 10:47:13;;;;;;;7.7;11.6;;;;;;;6;68.4;98590;;;;
2022/04/10 10:58:13;;;;;;;7.7;11.6;;;;;;;6.6;64.9;98590;;;;
2022/04/10 11:08:17;;;;;;;4.2;8.4;;;;;;;7.5;60.9;98590;;;;
2022/04/10 11:19:15;;;;;;;4.2;8.4;;;;;;;5.4;69.5;98620;;;;
2022/04/10 11:29:15;;;;;;;4.2;8.4;;;;;;;5.9;66.7;98600;;;;
2022/04/10 11:40:13;;;;;;;3.6;5.9;;;;;;;6.8;64.9;98590;;;;
2022/04/10 11:50:13;;;;;;;3.6;5.9;;;;;;;6.8;63.8;98590;;;;
2022/04/10 12:01:14;;;;;;;4.5;8.9;;;;;;;6.7;65;98600;;;;
2022/04/10 12:11:13;;;;;;;4.5;8.9;;;;;;;7.5;64.2;98580;;;;
2022/04/10 12:22:13;;;;;;;4.5;8.9;;;;;;;8.2;57.8;98560;;;;
2022/04/10 12:32:13;;;;;;;4.3;7.1;;;;;;;9;54.7;98550;;;;
2022/04/10 12:43:13;;;;;;;4.3;7.1;;;;;;;9.5;50.9;98550;;;;
2022/04/10 12:53:13;;;;;;;4.3;7.1;;;;;;;9.4;46.8;98550;;;;
2022/04/10 13:03:13;;;;;;;2.6;10.3;;;;;;;9;47.1;98550;;;;
2022/04/10 13:14:15;;;;;;;2.6;10.3;;;;;;;9.3;48.8;98550;;;;
2022/04/10 13:25:13;;;;;;;2.6;10.3;;;;;;;9.8;49;98550;;;;
2022/04/10 13:36:13;;;;;;;2.7;6;;;;;;;9.3;48.8;98550;;;;
2022/04/10 13:46:14;;;;;;;2.7;6;;;;;;;9;48.4;98550;;;;
2022/04/10 13:57:13;;;;;;;2.7;6;;;;;;;8.4;49.9;98560;;;;
2022/04/10 14:07:13;;;;;;;3.4;5.9;;;;;;;8.2;48.9;98560;;;;
2022/04/10 14:18:13;;;;;;;3.4;5.9;;;;;;;7.8;50.7;98560;;;;
2022/04/10 14:29:13;;;;;;;3.4;5.9;;;;;;;8.3;49.7;98550;;;;
2022/04/10 14:40:13;;;;;;;2.8;4.5;;;;;;;8.6;48.1;98560;;;;
2022/04/10 14:51:13;;;;;;;2.8;4.5;;;;;;;8.9;47;98570;;;;
2022/04/10 15:01:13;;;;;;;2.3;4.6;;;;;;;9;50.5;98580;;;;
2022/04/10 15:11:14;;;;;;;2.3;4.6;;;;;;;8.4;50.8;98600;;;;
2022/04/10 15:21:15;;;;;;;2.3;4.6;;;;;;;7.7;52.1;98600;;;;
2022/04/10 15:31:13;;;;;;;3.1;6.4;;;;;;;7.1;54.1;98610;;;;
2022/04/10 15:42:13;;;;;;;3.1;6.4;;;;;;;6.8;58.1;98640;;;;
2022/04/10 15:53:13;;;;;;;3.1;6.4;;;;;;;6.2;61.8;98660;;;;
2022/04/10 16:03:13;;;;;;;4.5;6.4;;;;;;;7.8;60.1;98660;;;;
2022/04/10 16:14:13;;;;;;;4.5;6.4;;;;;;;9.9;53.8;98650;;;;
2022/04/10 16:24:14;;;;;;;4.5;6.4;;;;;;;8.9;56;98660;;;;
2022/04/10 16:34:20;;;;;;;4.6;8.5;;;;;;;8.2;58;98670;;;;
2022/04/10 16:45:13;;;;;;;4.6;8.5;;;;;;;6.8;60.9;98680;;;;
2022/04/10 16:55:13;;;;;;;4.6;8.5;;;;;;;5.8;65;98700;;;;
2022/04/10 17:06:13;;;;;;;5;8;;;;;;;5.4;67.3;98710;;;;
2022/04/10 17:17:13;;;;;;;5;8;;;;;;;5;68.9;98730;;;;
2022/04/10 17:28:13;;;;;;;5;8;;;;;;;4.8;70.5;98710;;;;
2022/04/10 17:38:13;;;;;;;7.9;11.8;;;;;;;4.6;69.5;98730;;;;
2022/04/10 17:49:13;;;;;;;7.9;11.8;;;;;;;4.1;70.1;98750;;;;
2022/04/10 17:59:13;;;;;;;7.9;11.8;;;;;;;3.6;73;98760;;;;
2022/04/10 18:09:13;;;;;;;12.3;15.3;;;;;;;3.4;73.6;98770;;;;
2022/04/10 18:19:15;;;;;;;12.3;15.3;;;;;;;3.1;74.4;98780;;;;
2022/04/10 18:30:13;;;;;;;8.5;12.7;;;;;;;2.7;77.5;98780;;;;
2022/04/10 18:40:13;;;;;;;8.5;12.7;;;;;;;2.6;78.3;98790;;;;
2022/04/10 18:50:13;;;;;;;8.5;12.7;;;;;;;2.5;78.4;98790;;;;
2022/04/10 19:00:14;;;;;;;11.6;17.3;;;;;;;2.3;77.9;98800;;;;
2022/04/10 19:10:14;;;;;;;11.6;17.3;;;;;;;2.2;79.7;98800;;;;
2022/04/10 19:20:13;;;;;;;11.6;17.3;;;;;;;2.1;80.2;98790;;;;
2022/04/10 19:31:13;;;;;;;12.1;20.9;;;;;;;2.2;80.1;98790;;;;
2022/04/10 19:41:13;;;;;;;12.1;20.9;;;;;;;2.3;79.3;98800;;;;
2022/04/10 19:51:13;;;;;;;12.1;20.9;;;;;;;2.4;79;98810;;;;
2022/04/10 20:02:13;;;;;;;14.5;23.7;;;;;;;2.5;79;98810;;;;
2022/04/10 20:13:13;;;;;;;14.5;23.7;;;;;;;2.7;78.7;98820;;;;
2022/04/10 20:24:14;;;;;;;14.5;23.7;;;;;;;2.8;79;98820;;;;
2022/04/10 20:35:13;;;;;;;21.7;29.5;;;;;;;2.8;77.9;98830;;;;
2022/04/10 20:45:13;;;;;;;21.7;29.5;;;;;;;2.7;77.7;98830;;;;
2022/04/10 20:55:13;;;;;;;21.7;29.5;;;;;;;2.6;78.2;98830;;;;
2022/04/10 21:06:14;;;;;;;27.4;37.4;;;;;;;2.4;78.5;98830;;;;
2022/04/10 21:17:13;;;;;;;27.4;37.4;;;;;;;2.2;77.6;98830;;;;
2022/04/10 21:27:13;;;;;;;27.4;37.4;;;;;;;1.9;78.3;98830;;;;
2022/04/10 21:37:13;;;;;;;19.2;29.2;;;;;;;1.9;78.5;98840;;;;
2022/04/10 21:48:13;;;;;;;19.2;29.2;;;;;;;2.1;78.8;98850;;;;
2022/04/10 21:58:13;;;;;;;19.2;29.2;;;;;;;2.1;78.5;98850;;;;
2022/04/10 22:08:13;;;;;;;17.9;23.6;;;;;;;2.1;78.2;98850;;;;
2022/04/10 22:18:13;;;;;;;17.9;23.6;;;;;;;2.2;77.7;98860;;;;
2022/04/10 22:28:13;;;;;;;17.9;23.6;;;;;;;2.1;77.4;98860;;;;
2022/04/10 22:38:14;;;;;;;20.6;27.9;;;;;;;1.9;77.9;98860;;;;
2022/04/10 22:49:13;;;;;;;20.6;27.9;;;;;;;1.6;78;98860;;;;
2022/04/10 22:59:14;;;;;;;22.4;29.6;;;;;;;1.5;78.3;98870;;;;
2022/04/10 23:10:13;;;;;;;22.4;29.6;;;;;;;1.3;79.1;98870;;;;
2022/04/10 23:20:13;;;;;;;22.4;29.6;;;;;;;1.1;79.2;98870;;;;
2022/04/10 23:31:14;;;;;;;17.7;24.6;;;;;;;1;79.5;98870;;;;
2022/04/10 23:41:14;;;;;;;17.7;24.6;;;;;;;0.8;80;98880;;;;
2022/04/10 23:51:14;;;;;;;17.7;24.6;;;;;;;0.7;79.9;98870;;;;
